createdAt,value
2023-05-09T00:02:35.353Z,76.45
2023-05-09T00:05:37.198Z,75.79
2023-05-09T00:08:38.785Z,75.94
2023-05-09T00:11:40.833Z,75.39
2023-05-09T00:14:45.631Z,75.39
2023-05-09T00:17:47.314Z,75.31
2023-05-09T00:20:49.446Z,74.55
2023-05-09T00:23:51.034Z,74.25
2023-05-09T00:26:52.629Z,73.96
2023-05-09T00:29:55.984Z,74.19
2023-05-09T00:32:57.559Z,74.97
2023-05-09T00:35:59.167Z,74.99
2023-05-09T00:39:00.793Z,75.26
2023-05-09T00:42:03.640Z,75.32
2023-05-09T00:45:07.401Z,74.64
2023-05-09T00:48:09.051Z,74.92
2023-05-09T00:51:10.722Z,74.94
2023-05-09T00:54:12.474Z,74.82
2023-05-09T00:57:14.374Z,74.90
2023-05-09T01:00:17.816Z,73.37
2023-05-09T01:03:19.980Z,72.89
2023-05-09T01:06:25.564Z,72.88
2023-05-09T01:09:31.755Z,72.76
2023-05-09T01:12:37.310Z,72.46
2023-05-09T01:15:43.821Z,72.28
2023-05-09T01:18:47.346Z,72.18
2023-05-09T01:21:49.725Z,73.03
2023-05-09T01:25:14.496Z,73.05
2023-05-09T01:28:19.138Z,73.10
2023-05-09T01:31:22.905Z,72.47
2023-05-09T01:34:26.273Z,73.35
2023-05-09T01:37:30.517Z,73.49
2023-05-09T01:40:33.804Z,73.17
2023-05-09T01:43:36.988Z,74.16
2023-05-09T01:46:40.517Z,73.73
2023-05-09T01:49:43.217Z,74.48
2023-05-09T01:52:48.057Z,74.44
2023-05-09T01:55:51.064Z,74.81
2023-05-09T01:58:53.677Z,74.37
2023-05-09T02:01:56.847Z,75.10
2023-05-09T02:04:58.683Z,75.29
2023-05-09T02:08:00.430Z,75.96
2023-05-09T02:11:01.983Z,76.51
2023-05-09T02:14:03.629Z,76.41
2023-05-09T02:17:09.571Z,76.03
2023-05-09T02:20:11.638Z,77.19
2023-05-09T02:23:13.674Z,77.11
2023-05-09T02:26:15.234Z,75.84
2023-05-09T02:29:20.104Z,75.64
2023-05-09T02:32:25.760Z,74.94
2023-05-09T02:35:28.986Z,74.63
2023-05-09T02:38:30.600Z,74.53
2023-05-09T02:41:32.397Z,74.47
2023-05-09T02:44:34.629Z,73.66
2023-05-09T02:47:38.053Z,73.91
2023-05-09T02:50:42.817Z,73.25
2023-05-09T02:53:44.555Z,73.22
2023-05-09T02:56:46.421Z,73.63
2023-05-09T02:59:48.425Z,74.54
2023-05-09T03:02:52.514Z,75.05
2023-05-09T03:05:54.570Z,75.65
2023-05-09T03:08:56.845Z,76.56
2023-05-09T03:11:59.542Z,77.33
2023-05-09T03:15:01.520Z,77.91
2023-05-09T03:18:05.563Z,78.76
2023-05-09T03:21:07.334Z,78.70
2023-05-09T03:24:11.086Z,78.98
2023-05-09T03:27:12.982Z,79.00
2023-05-09T03:30:15.030Z,79.50
2023-05-09T03:33:19.746Z,79.34
2023-05-09T03:36:22.074Z,78.63
2023-05-09T03:39:24.479Z,78.65
2023-05-09T03:42:31.013Z,78.78
2023-05-09T03:45:36.185Z,79.53
2023-05-09T03:48:39.712Z,80.15
2023-05-09T03:51:42.273Z,79.98
2023-05-09T03:54:48.507Z,80.94
2023-05-09T03:57:51.035Z,81.01
2023-05-09T04:00:53.703Z,81.22
2023-05-09T04:03:59.470Z,81.20
2023-05-09T04:07:02.868Z,81.11
2023-05-09T04:10:05.075Z,81.84
2023-05-09T04:13:07.597Z,81.73
2023-05-09T04:16:10.308Z,81.18
2023-05-09T04:19:13.454Z,81.93
2023-05-09T04:22:15.201Z,82.02
2023-05-09T04:25:17.069Z,82.25
2023-05-09T04:28:20.271Z,82.46
2023-05-09T04:31:23.280Z,82.58
2023-05-09T04:34:28.124Z,82.64
2023-05-09T04:37:32.808Z,83.14
2023-05-09T04:40:36.982Z,83.28
2023-05-09T04:43:39.477Z,83.14
2023-05-09T04:46:42.244Z,82.85
2023-05-09T04:49:45.398Z,82.82
2023-05-09T04:52:47.126Z,83.19
2023-05-09T04:55:51.986Z,82.92
2023-05-09T04:58:54.493Z,82.77
2023-05-09T05:01:56.277Z,82.37
2023-05-09T05:05:10.849Z,81.44
2023-05-09T05:08:15.846Z,80.55
2023-05-09T05:11:18.138Z,79.72
2023-05-09T05:14:20.809Z,78.98
2023-05-09T05:17:22.588Z,79.01
2023-05-09T05:20:25.819Z,79.17
2023-05-09T05:23:27.477Z,79.11
2023-05-09T05:26:30.239Z,79.48
2023-05-09T05:29:32.357Z,79.88
2023-05-09T05:32:34.680Z,79.09
2023-05-09T05:35:37.830Z,79.33
2023-05-09T05:38:39.460Z,79.96
2023-05-09T05:41:41.353Z,79.50
2023-05-09T05:44:43.422Z,79.55
2023-05-09T05:47:46.690Z,79.57
2023-05-09T05:50:50.409Z,79.52
2023-05-09T05:53:55.904Z,79.20
2023-05-09T05:56:58.589Z,78.81
2023-05-09T06:00:00.381Z,78.58
2023-05-09T06:03:02.143Z,78.22
2023-05-09T06:06:16.935Z,77.85
2023-05-09T06:09:18.653Z,77.96
2023-05-09T06:12:20.510Z,77.50
2023-05-09T06:15:22.283Z,77.48
2023-05-09T06:18:25.275Z,77.49
2023-05-09T06:21:28.698Z,77.70
2023-05-09T06:24:35.613Z,77.90
2023-05-09T06:27:38.779Z,77.91
2023-05-09T06:30:41.192Z,77.41
2023-05-09T06:33:42.808Z,77.56
2023-05-09T06:36:45.853Z,77.49
2023-05-09T06:39:47.440Z,77.80
2023-05-09T06:42:49.019Z,77.27
2023-05-09T06:45:51.211Z,77.60
2023-05-09T06:48:52.810Z,76.30
2023-05-09T06:51:55.728Z,76.26
2023-05-09T06:54:57.377Z,76.65
2023-05-09T06:57:58.997Z,76.89
2023-05-09T07:01:00.840Z,76.31
2023-05-09T07:04:02.414Z,76.27
2023-05-09T07:07:06.000Z,77.55
2023-05-09T07:10:12.103Z,77.91
2023-05-09T07:13:14.213Z,76.85
2023-05-09T07:16:17.925Z,76.59
2023-05-09T07:19:20.356Z,76.46
2023-05-09T07:22:23.448Z,76.82
2023-05-09T07:25:25.234Z,76.20
2023-05-09T07:28:27.022Z,76.04
2023-05-09T07:31:28.679Z,77.11
2023-05-09T07:34:30.510Z,76.47
2023-05-09T07:37:33.553Z,77.05
2023-05-09T07:40:37.157Z,76.31
2023-05-09T07:43:38.677Z,76.48
2023-05-09T07:46:42.047Z,76.13
2023-05-09T07:49:46.344Z,76.16
2023-05-09T07:52:49.364Z,76.75
2023-05-09T07:55:50.892Z,76.74
2023-05-09T07:58:54.337Z,76.86
2023-05-09T08:01:57.307Z,77.10
2023-05-09T08:05:01.429Z,76.38
2023-05-09T08:08:04.787Z,76.87
2023-05-09T08:11:06.347Z,76.01
2023-05-09T08:14:08.099Z,76.82
2023-05-09T08:17:09.852Z,76.44
2023-05-09T08:20:12.429Z,76.67
2023-05-09T08:23:15.438Z,78.81
2023-05-09T08:26:16.982Z,77.87
2023-05-09T08:29:18.596Z,76.66
2023-05-09T08:32:20.379Z,77.76
2023-05-09T08:35:22.069Z,76.92
2023-05-09T08:38:25.188Z,76.56
2023-05-09T08:41:28.138Z,76.61
2023-05-09T08:44:31.003Z,76.76
2023-05-09T08:47:34.531Z,76.06
2023-05-09T08:50:36.276Z,75.80
2023-05-09T08:53:39.606Z,76.94
2023-05-09T08:56:41.613Z,77.20
2023-05-09T08:59:43.770Z,76.23
2023-05-09T09:02:45.558Z,76.47
2023-05-09T09:05:48.480Z,76.73
2023-05-09T09:08:52.376Z,77.03
2023-05-09T09:11:55.667Z,76.95
2023-05-09T09:15:02.814Z,76.69
2023-05-09T09:18:09.748Z,76.70
2023-05-09T09:21:12.518Z,76.37
2023-05-09T09:24:19.116Z,76.40
2023-05-09T09:27:20.650Z,75.18
2023-05-09T09:30:23.618Z,76.14
2023-05-09T09:33:26.713Z,75.23
2023-05-09T09:36:29.123Z,75.87
2023-05-09T09:39:32.096Z,76.44
2023-05-09T09:42:40.461Z,74.34
2023-05-09T09:45:49.528Z,74.31
2023-05-09T09:48:55.174Z,73.45
2023-05-09T09:51:58.249Z,73.12
2023-05-09T09:55:01.279Z,73.15
2023-05-09T09:58:03.057Z,72.88
2023-05-09T10:01:06.173Z,72.58
2023-05-09T10:04:09.339Z,68.98
2023-05-09T10:07:14.548Z,72.53
2023-05-09T10:10:17.922Z,71.69
2023-05-09T10:13:21.102Z,71.74
2023-05-09T10:16:31.946Z,72.06
2023-05-09T10:19:44.135Z,71.31
2023-05-09T10:22:45.972Z,69.46
2023-05-09T10:25:54.443Z,67.08
2023-05-09T10:28:57.336Z,70.73
2023-05-09T10:32:00.005Z,69.10
2023-05-09T10:35:06.021Z,69.36
2023-05-09T10:38:07.903Z,69.73
2023-05-09T10:41:12.394Z,70.08
2023-05-09T10:44:14.309Z,67.30
2023-05-09T10:47:16.976Z,67.28
2023-05-09T10:50:19.250Z,66.20
2023-05-09T10:53:24.207Z,67.42
2023-05-09T10:56:29.235Z,66.51
2023-05-09T10:59:37.831Z,68.11
2023-05-09T11:02:39.581Z,67.87
2023-05-09T11:05:41.484Z,69.44
2023-05-09T11:08:43.050Z,66.26
2023-05-09T11:11:53.003Z,68.76
2023-05-09T11:15:04.435Z,69.07
2023-05-09T11:18:06.868Z,69.66
2023-05-09T11:21:09.518Z,69.59
2023-05-09T11:24:16.445Z,69.80
2023-05-09T11:27:21.245Z,67.39
2023-05-09T11:30:23.133Z,67.15
2023-05-09T11:33:27.494Z,66.89
2023-05-09T11:36:30.201Z,66.05
2023-05-09T11:39:32.006Z,67.75
2023-05-09T11:42:35.012Z,67.90
2023-05-09T11:45:36.857Z,67.94
2023-05-09T11:48:39.469Z,67.59
2023-05-09T11:51:41.610Z,67.76
2023-05-09T11:54:43.647Z,68.48
2023-05-09T11:57:49.017Z,66.92
2023-05-09T12:00:51.728Z,67.52
2023-05-09T12:03:53.776Z,67.30
2023-05-09T12:06:57.676Z,68.91
2023-05-09T12:10:01.914Z,68.65
2023-05-09T12:13:05.320Z,69.22
2023-05-09T12:16:08.859Z,69.68
2023-05-09T12:19:11.663Z,69.38
2023-05-09T12:22:13.226Z,69.80
2023-05-09T12:25:15.057Z,70.23
2023-05-09T12:28:18.948Z,69.80
2023-05-09T12:31:20.993Z,69.91
2023-05-09T12:34:23.087Z,69.55
2023-05-09T12:37:24.847Z,69.64
2023-05-09T12:40:26.917Z,69.11
2023-05-09T12:43:31.398Z,68.00
2023-05-09T12:46:33.537Z,68.76
2023-05-09T12:49:36.541Z,69.22
2023-05-09T12:52:46.986Z,68.09
2023-05-09T12:56:01.915Z,67.87
2023-05-09T12:59:10.674Z,66.90
2023-05-09T13:02:13.548Z,66.86
2023-05-09T13:05:20.161Z,66.35
2023-05-09T13:08:21.730Z,66.04
2023-05-09T13:11:23.298Z,66.06
2023-05-09T13:14:26.882Z,66.23
2023-05-09T13:17:28.946Z,66.67
2023-05-09T13:20:30.834Z,67.21
2023-05-09T13:23:32.437Z,67.27
2023-05-09T13:26:34.353Z,65.74
2023-05-09T13:29:37.352Z,65.65
2023-05-09T13:32:39.133Z,64.43
2023-05-09T13:35:40.862Z,64.69
2023-05-09T13:38:44.811Z,63.70
2023-05-09T13:41:46.321Z,63.15
2023-05-09T13:44:49.468Z,63.16
2023-05-09T13:47:51.226Z,63.64
2023-05-09T13:50:52.915Z,64.54
2023-05-09T13:53:54.528Z,63.54
2023-05-09T13:56:56.023Z,61.35
2023-05-09T13:59:59.057Z,62.89
2023-05-09T14:03:01.484Z,62.50
2023-05-09T14:06:04.455Z,61.64
2023-05-09T14:09:07.335Z,59.81
2023-05-09T14:12:09.615Z,60.66
2023-05-09T14:15:12.856Z,60.87
2023-05-09T14:18:17.727Z,60.56
2023-05-09T14:21:22.027Z,61.57
2023-05-09T14:24:23.929Z,61.57
2023-05-09T14:27:26.414Z,61.64
2023-05-09T14:30:29.465Z,62.18
2023-05-09T14:33:31.168Z,60.88
2023-05-09T14:36:33.150Z,59.59
2023-05-09T14:39:34.983Z,60.41
2023-05-09T14:42:37.218Z,62.18
2023-05-09T14:45:40.463Z,61.34
2023-05-09T14:48:42.142Z,61.06
2023-05-09T14:51:44.451Z,61.00
2023-05-09T14:54:46.147Z,61.44
2023-05-09T14:57:47.702Z,61.66
2023-05-09T15:00:52.822Z,61.04
2023-05-09T15:03:54.456Z,61.53
2023-05-09T15:06:56.268Z,62.11
2023-05-09T15:09:57.985Z,61.77
2023-05-09T15:12:59.730Z,62.00
2023-05-09T15:16:02.821Z,61.82
2023-05-09T15:19:05.798Z,60.37
2023-05-09T15:22:08.652Z,60.35
2023-05-09T15:25:10.803Z,60.58
2023-05-09T15:28:12.586Z,60.80
2023-05-09T15:31:15.692Z,61.71
2023-05-09T15:34:17.199Z,61.90
2023-05-09T15:37:19.006Z,61.95
2023-05-09T15:40:20.577Z,61.21
2023-05-09T15:43:22.722Z,61.80
2023-05-09T15:46:25.770Z,60.69
2023-05-09T15:49:27.393Z,61.57
2023-05-09T15:52:29.542Z,60.56
2023-05-09T15:55:31.423Z,60.78
2023-05-09T15:58:33.377Z,61.52
2023-05-09T16:01:36.501Z,60.59
2023-05-09T16:04:38.601Z,60.34
2023-05-09T16:07:43.178Z,61.52
2023-05-09T16:10:48.843Z,61.58
2023-05-09T16:13:50.400Z,61.38
2023-05-09T16:16:54.303Z,62.00
2023-05-09T16:19:56.442Z,61.88
2023-05-09T16:22:58.006Z,62.70
2023-05-09T16:25:59.558Z,63.45
2023-05-09T16:29:01.389Z,63.32
2023-05-09T16:32:04.510Z,63.42
2023-05-09T16:35:07.505Z,64.02
2023-05-09T16:38:09.749Z,63.52
2023-05-09T16:41:11.369Z,63.53
2023-05-09T16:44:13.463Z,64.13
2023-05-09T16:47:16.670Z,65.39
2023-05-09T16:50:18.309Z,65.30
2023-05-09T16:53:20.304Z,66.08
2023-05-09T16:56:22.710Z,65.17
2023-05-09T16:59:24.629Z,65.83
2023-05-09T17:02:27.821Z,66.46
2023-05-09T17:05:29.405Z,65.98
2023-05-09T17:08:31.823Z,65.91
2023-05-09T17:11:33.533Z,66.41
2023-05-09T17:14:35.503Z,66.92
2023-05-09T17:17:38.478Z,67.12
2023-05-09T17:20:40.558Z,67.58
2023-05-09T17:23:42.597Z,68.03
2023-05-09T17:26:44.259Z,68.00
2023-05-09T17:29:45.896Z,68.62
2023-05-09T17:32:49.406Z,68.63
2023-05-09T17:35:51.140Z,68.69
2023-05-09T17:38:52.708Z,68.64
2023-05-09T17:41:54.700Z,68.26
2023-05-09T17:44:56.570Z,67.45
2023-05-09T17:48:01.360Z,67.80
2023-05-09T17:51:03.042Z,68.51
2023-05-09T17:54:05.653Z,68.84
2023-05-09T17:57:07.510Z,68.79
2023-05-09T18:00:09.739Z,69.20
2023-05-09T18:03:18.884Z,68.58
2023-05-09T18:06:20.437Z,68.47
2023-05-09T18:09:22.805Z,68.48
2023-05-09T18:12:25.708Z,68.28
2023-05-09T18:15:27.503Z,68.78
2023-05-09T18:18:33.042Z,69.15
2023-05-09T18:21:34.618Z,68.60
2023-05-09T18:24:36.860Z,68.53
2023-05-09T18:27:38.589Z,68.85
2023-05-09T18:30:40.298Z,68.81
2023-05-09T18:33:43.831Z,68.64
2023-05-09T18:36:45.404Z,68.53
2023-05-09T18:39:47.822Z,68.69
2023-05-09T18:42:49.456Z,68.32
2023-05-09T18:45:52.029Z,68.53
2023-05-09T18:48:55.300Z,68.44
2023-05-09T18:51:57.023Z,68.02
2023-05-09T18:54:58.718Z,67.14
2023-05-09T18:58:00.383Z,67.07
2023-05-09T19:01:02.444Z,66.36
2023-05-09T19:04:05.673Z,66.42
2023-05-09T19:07:10.109Z,66.41
2023-05-09T19:10:12.412Z,65.63
2023-05-09T19:13:16.091Z,65.21
2023-05-09T19:16:20.398Z,64.40
2023-05-09T19:19:23.546Z,64.44
2023-05-09T19:22:25.106Z,63.67
2023-05-09T19:25:26.784Z,63.59
2023-05-09T19:28:28.306Z,63.88
2023-05-09T19:31:31.321Z,63.75
2023-05-09T19:34:34.416Z,63.34
2023-05-09T19:37:36.383Z,63.33
2023-05-09T19:40:38.082Z,62.86
2023-05-09T19:43:39.646Z,62.42
2023-05-09T19:46:43.281Z,62.26
2023-05-09T19:49:46.431Z,62.01
2023-05-09T19:52:48.058Z,61.48
2023-05-09T19:55:49.762Z,61.55
2023-05-09T19:58:51.577Z,61.25
2023-05-09T20:01:53.264Z,60.42
2023-05-09T20:04:56.359Z,60.65
2023-05-09T20:07:57.964Z,60.00
2023-05-09T20:11:00.163Z,59.69
2023-05-09T20:14:01.842Z,59.55
2023-05-09T20:17:05.332Z,59.48
2023-05-09T20:20:10.228Z,58.63
2023-05-09T20:23:11.903Z,58.68
2023-05-09T20:26:13.518Z,58.65
2023-05-09T20:29:15.360Z,58.42
2023-05-09T20:32:17.726Z,57.04
2023-05-09T20:35:21.038Z,56.37
2023-05-09T20:38:23.123Z,58.07
2023-05-09T20:41:25.709Z,57.06
2023-05-09T20:44:27.951Z,57.51
2023-05-09T20:47:29.622Z,57.50
2023-05-09T20:50:32.776Z,56.86
2023-05-09T20:53:35.069Z,58.19
2023-05-09T20:56:36.683Z,59.47
2023-05-09T20:59:38.254Z,57.57
2023-05-09T21:02:39.910Z,56.58
2023-05-09T21:05:43.329Z,56.14
2023-05-09T21:08:44.929Z,57.27
2023-05-09T21:11:46.585Z,65.58
2023-05-09T21:14:49.062Z,72.18
2023-05-09T21:17:50.917Z,76.71
2023-05-09T21:20:54.183Z,82.46
2023-05-09T21:23:55.913Z,82.96
2023-05-09T21:26:58.357Z,84.26
2023-05-09T21:30:00.350Z,89.84
2023-05-09T21:33:03.799Z,88.82
2023-05-09T21:36:08.465Z,93.64
2023-05-09T21:39:10.405Z,87.87
2023-05-09T21:42:12.110Z,94.89
2023-05-09T21:45:13.741Z,94.94
2023-05-09T21:48:15.441Z,95.96
2023-05-09T21:51:18.562Z,97.88
2023-05-09T21:54:20.970Z,97.80
2023-05-09T21:57:22.613Z,99.80
2023-05-09T22:00:24.841Z,100.00
2023-05-09T22:03:27.357Z,100.00
2023-05-09T22:06:31.608Z,100.00
2023-05-09T22:09:33.540Z,100.00
2023-05-09T22:12:35.212Z,100.00
2023-05-09T22:15:36.741Z,100.00
2023-05-09T22:18:41.189Z,100.00
2023-05-09T22:21:48.542Z,100.00
2023-05-09T22:24:50.304Z,100.00
2023-05-09T22:27:51.952Z,100.00
2023-05-09T22:30:53.574Z,100.00
2023-05-09T22:33:55.192Z,100.00
2023-05-09T22:36:58.847Z,100.00
2023-05-09T22:40:03.494Z,100.00
2023-05-09T22:43:05.461Z,100.00
2023-05-09T22:46:07.137Z,100.00
2023-05-09T22:49:09.193Z,100.00
2023-05-09T22:52:12.700Z,100.00
2023-05-09T22:55:14.376Z,100.00
2023-05-09T22:58:16.214Z,100.00
2023-05-09T23:01:18.193Z,100.00
2023-05-09T23:04:20.104Z,100.00
2023-05-09T23:07:23.277Z,100.00
2023-05-09T23:10:24.964Z,100.00
2023-05-09T23:13:26.634Z,100.00
2023-05-09T23:16:28.199Z,100.00
2023-05-09T23:19:30.260Z,100.00
2023-05-09T23:22:33.230Z,100.00
2023-05-09T23:25:34.818Z,100.00
2023-05-09T23:28:36.672Z,100.00
2023-05-09T23:31:38.675Z,100.00
2023-05-09T23:34:40.333Z,100.00
2023-05-09T23:37:43.489Z,100.00
2023-05-09T23:40:46.157Z,100.00
2023-05-09T23:43:47.951Z,100.00
2023-05-09T23:46:49.678Z,100.00
2023-05-09T23:49:51.369Z,100.00
2023-05-09T23:52:54.663Z,100.00
2023-05-09T23:55:56.423Z,100.00
2023-05-09T23:58:58.076Z,100.00
